createdAt,value
2018-04-26T00:01:40.801Z,99.90
2018-04-26T00:04:08.103Z,99.80
2018-04-26T00:06:34.321Z,99.80
2018-04-26T00:09:00.559Z,99.80
2018-04-26T00:11:26.905Z,99.00
2018-04-26T00:13:53.241Z,99.30
2018-04-26T00:16:19.533Z,99.30
2018-04-26T00:18:45.809Z,97.10
2018-04-26T00:21:12.135Z,97.30
2018-04-26T00:23:38.552Z,98.40
2018-04-26T00:26:04.785Z,98.70
2018-04-26T00:28:31.200Z,98.00
2018-04-26T00:30:57.462Z,98.80
2018-04-26T00:33:23.768Z,99.10
2018-04-26T00:35:50.159Z,98.70
2018-04-26T00:38:17.149Z,98.40
2018-04-26T00:40:43.480Z,98.40
2018-04-26T00:43:09.717Z,98.10
2018-04-26T00:45:35.956Z,98.70
2018-04-26T00:48:02.325Z,98.80
2018-04-26T00:50:28.486Z,98.30
2018-04-26T00:52:54.772Z,99.50
2018-04-26T00:55:21.095Z,99.30
2018-04-26T00:57:47.356Z,99.00
2018-04-26T01:00:13.582Z,99.20
2018-04-26T01:02:39.930Z,99.40
2018-04-26T01:05:06.187Z,99.10
2018-04-26T01:07:32.420Z,99.10
2018-04-26T01:09:58.659Z,99.40
2018-04-26T01:12:24.897Z,99.20
2018-04-26T01:14:51.480Z,97.50
2018-04-26T01:17:17.860Z,99.60
2018-04-26T01:19:44.099Z,99.00
2018-04-26T01:22:10.370Z,99.40
2018-04-26T01:24:36.852Z,98.80
2018-04-26T01:27:03.155Z,99.40
2018-04-26T01:29:29.449Z,99.70
2018-04-26T01:31:56.519Z,99.70
2018-04-26T01:34:22.755Z,99.60
2018-04-26T01:37:01.283Z,97.40
2018-04-26T01:39:27.669Z,99.40
2018-04-26T01:41:54.680Z,99.00
2018-04-26T01:44:21.036Z,98.80
2018-04-26T01:46:48.999Z,99.70
2018-04-26T01:49:15.217Z,99.60
2018-04-26T01:51:41.588Z,99.10
2018-04-26T01:54:08.585Z,99.30
2018-04-26T01:56:34.863Z,99.20
2018-04-26T01:59:01.838Z,99.30
2018-04-26T02:01:28.152Z,99.20
2018-04-26T02:03:54.383Z,99.30
2018-04-26T02:06:20.692Z,99.10
2018-04-26T02:08:47.813Z,99.30
2018-04-26T02:11:14.070Z,99.20
2018-04-26T02:13:41.141Z,98.80
2018-04-26T02:16:07.437Z,98.70
2018-04-26T02:18:33.731Z,99.10
2018-04-26T02:20:59.968Z,98.70
2018-04-26T02:23:26.354Z,98.40
2018-04-26T02:25:53.380Z,98.60
2018-04-26T02:28:19.718Z,98.50
2018-04-26T02:30:46.845Z,99.40
2018-04-26T02:33:13.244Z,99.30
2018-04-26T02:35:39.553Z,99.00
2018-04-26T02:38:06.535Z,98.40
2018-04-26T02:40:32.925Z,98.40
2018-04-26T02:43:00.022Z,98.90
2018-04-26T02:45:26.304Z,98.80
2018-04-26T02:47:53.432Z,97.10
2018-04-26T02:50:19.688Z,97.10
2018-04-26T02:52:46.024Z,97.80
2018-04-26T02:55:12.276Z,98.70
2018-04-26T02:57:38.579Z,98.70
2018-04-26T03:00:05.642Z,99.10
2018-04-26T03:02:31.911Z,99.10
2018-04-26T03:04:58.156Z,98.70
2018-04-26T03:07:24.413Z,99.20
2018-04-26T03:09:51.513Z,99.20
2018-04-26T03:12:17.754Z,99.10
2018-04-26T03:14:43.987Z,99.00
2018-04-26T03:17:10.240Z,99.30
2018-04-26T03:19:37.485Z,99.60
2018-04-26T03:22:03.721Z,99.60
2018-04-26T03:24:30.702Z,98.40
2018-04-26T03:26:56.946Z,98.40
2018-04-26T03:29:23.776Z,99.50
2018-04-26T03:31:50.080Z,98.90
2018-04-26T03:34:17.089Z,99.10
2018-04-26T03:36:43.501Z,99.10
2018-04-26T03:39:09.800Z,99.10
2018-04-26T03:41:37.234Z,99.10
2018-04-26T03:44:03.552Z,99.10
2018-04-26T03:46:29.883Z,99.50
2018-04-26T03:48:56.247Z,99.80
2018-04-26T03:51:23.249Z,99.50
2018-04-26T03:53:49.534Z,99.50
2018-04-26T03:56:15.837Z,99.50
2018-04-26T03:58:42.132Z,99.90
2018-04-26T04:01:20.552Z,99.90
2018-04-26T04:03:59.161Z,99.90
2018-04-26T04:06:25.398Z,99.90
2018-04-26T04:08:51.663Z,99.90
2018-04-26T04:11:18.725Z,99.90
2018-04-26T04:13:46.179Z,99.90
2018-04-26T04:16:13.236Z,99.90
2018-04-26T04:18:40.224Z,99.90
2018-04-26T04:21:06.521Z,99.90
2018-04-26T04:23:33.504Z,99.90
2018-04-26T04:25:59.864Z,99.90
2018-04-26T04:28:26.513Z,99.80
2018-04-26T04:30:52.823Z,99.90
2018-04-26T04:33:19.200Z,99.70
2018-04-26T04:35:46.273Z,99.50
2018-04-26T04:38:12.575Z,99.50
2018-04-26T04:40:39.554Z,99.70
2018-04-26T04:43:05.793Z,99.60
2018-04-26T04:45:32.035Z,99.70
2018-04-26T04:47:58.283Z,99.40
2018-04-26T04:50:24.541Z,99.60
2018-04-26T04:52:52.135Z,99.90
2018-04-26T04:55:18.397Z,99.90
2018-04-26T04:57:44.720Z,99.60
2018-04-26T05:00:11.049Z,99.70
2018-04-26T05:02:37.553Z,99.60
2018-04-26T05:05:03.886Z,99.90
2018-04-26T05:07:30.170Z,99.60
2018-04-26T05:09:56.612Z,98.70
2018-04-26T05:12:22.996Z,99.10
2018-04-26T05:14:49.271Z,99.10
2018-04-26T05:17:16.716Z,99.10
2018-04-26T05:19:42.969Z,99.10
2018-04-26T05:22:09.176Z,98.80
2018-04-26T05:24:35.564Z,98.90
2018-04-26T05:27:01.804Z,99.50
2018-04-26T05:29:28.100Z,97.60
2018-04-26T05:31:55.083Z,99.10
2018-04-26T05:34:21.345Z,99.00
2018-04-26T05:36:47.685Z,99.20
2018-04-26T05:39:15.066Z,99.70
2018-04-26T05:41:41.464Z,99.70
2018-04-26T05:44:07.764Z,99.20
2018-04-26T05:46:34.100Z,99.20
2018-04-26T05:49:00.411Z,99.00
2018-04-26T05:51:26.674Z,98.50
2018-04-26T05:53:53.701Z,98.80
2018-04-26T05:56:20.684Z,98.80
2018-04-26T05:58:47.004Z,96.80
2018-04-26T06:01:13.403Z,99.20
2018-04-26T06:03:39.760Z,99.20
2018-04-26T06:06:06.034Z,98.60
2018-04-26T06:08:33.044Z,97.90
2018-04-26T06:10:59.438Z,97.90
2018-04-26T06:13:25.959Z,96.30
2018-04-26T06:15:52.262Z,98.50
2018-04-26T06:18:19.866Z,98.30
2018-04-26T06:20:46.808Z,98.30
2018-04-26T06:23:13.118Z,98.90
2018-04-26T06:25:39.415Z,98.50
2018-04-26T06:28:06.663Z,98.80
2018-04-26T06:30:32.945Z,98.80
2018-04-26T06:32:59.329Z,98.50
2018-04-26T06:35:25.795Z,97.50
2018-04-26T06:37:52.944Z,98.70
2018-04-26T06:40:19.233Z,98.60
2018-04-26T06:42:45.565Z,98.90
2018-04-26T06:45:11.857Z,99.20
2018-04-26T06:47:38.283Z,98.10
2018-04-26T06:50:05.788Z,98.50
2018-04-26T06:52:31.997Z,98.40
2018-04-26T06:54:58.233Z,98.20
2018-04-26T06:57:24.472Z,97.30
2018-04-26T06:59:50.752Z,97.90
2018-04-26T07:02:17.727Z,97.70
2018-04-26T07:04:43.940Z,97.70
2018-04-26T07:07:10.871Z,97.80
2018-04-26T07:09:37.932Z,97.00
2018-04-26T07:12:05.090Z,96.60
2018-04-26T07:14:31.237Z,96.30
2018-04-26T07:16:57.590Z,96.20
2018-04-26T07:19:23.816Z,98.10
2018-04-26T07:21:50.154Z,97.50
2018-04-26T07:24:16.396Z,98.50
2018-04-26T07:26:42.600Z,98.80
2018-04-26T07:29:08.860Z,98.50
2018-04-26T07:31:35.078Z,98.30
2018-04-26T07:34:01.301Z,99.20
2018-04-26T07:36:27.535Z,98.20
2018-04-26T07:38:53.783Z,97.50
2018-04-26T07:41:19.991Z,97.10
2018-04-26T07:43:46.200Z,98.80
2018-04-26T07:46:12.838Z,97.60
2018-04-26T07:48:39.032Z,98.80
2018-04-26T07:51:05.328Z,97.30
2018-04-26T07:53:31.620Z,96.90
2018-04-26T07:55:57.989Z,95.50
2018-04-26T07:58:24.211Z,96.00
2018-04-26T08:00:50.665Z,96.00
2018-04-26T08:03:17.608Z,96.30
2018-04-26T08:05:43.820Z,96.20
2018-04-26T08:08:10.030Z,97.50
2018-04-26T08:10:36.264Z,98.70
2018-04-26T08:13:02.564Z,97.30
2018-04-26T08:15:28.804Z,96.50
2018-04-26T08:17:55.003Z,97.50
2018-04-26T08:20:21.961Z,97.10
2018-04-26T08:22:48.287Z,97.10
2018-04-26T08:25:14.586Z,97.50
2018-04-26T08:27:40.843Z,98.10
2018-04-26T08:30:07.040Z,97.60
2018-04-26T08:32:33.352Z,95.50
2018-04-26T08:34:59.566Z,95.80
2018-04-26T08:37:25.861Z,94.50
2018-04-26T08:39:52.134Z,93.90
2018-04-26T08:42:18.511Z,94.70
2018-04-26T08:44:45.444Z,93.60
2018-04-26T08:47:11.736Z,93.60
2018-04-26T08:49:37.984Z,93.40
2018-04-26T08:52:04.299Z,92.80
2018-04-26T08:54:30.610Z,94.40
2018-04-26T08:56:56.831Z,94.30
2018-04-26T08:59:23.042Z,92.30
2018-04-26T09:01:49.303Z,91.90
2018-04-26T09:04:16.875Z,91.50
2018-04-26T09:06:43.121Z,91.50
2018-04-26T09:09:09.354Z,91.00
2018-04-26T09:11:36.343Z,91.10
2018-04-26T09:14:02.567Z,91.10
2018-04-26T09:16:29.599Z,87.50
2018-04-26T09:18:56.595Z,89.70
2018-04-26T09:21:22.819Z,89.50
2018-04-26T09:23:49.048Z,90.80
2018-04-26T09:26:15.309Z,88.90
2018-04-26T09:28:41.648Z,88.60
2018-04-26T09:31:07.852Z,87.50
2018-04-26T09:33:34.132Z,88.90
2018-04-26T09:36:00.353Z,86.40
2018-04-26T09:38:26.552Z,87.50
2018-04-26T09:40:52.844Z,85.00
2018-04-26T09:43:19.101Z,84.60
2018-04-26T09:45:45.420Z,85.70
2018-04-26T09:48:11.644Z,84.30
2018-04-26T09:50:37.950Z,87.40
2018-04-26T09:53:04.190Z,90.90
2018-04-26T09:55:30.592Z,91.70
2018-04-26T09:57:56.782Z,92.20
2018-04-26T10:00:27.074Z,90.50
2018-04-26T10:02:53.360Z,90.70
2018-04-26T10:05:19.602Z,92.00
2018-04-26T10:07:45.968Z,93.50
2018-04-26T10:10:12.275Z,94.00
2018-04-26T10:12:38.648Z,92.60
2018-04-26T10:15:04.967Z,92.40
2018-04-26T10:17:31.147Z,91.60
2018-04-26T10:19:57.424Z,88.50
2018-04-26T10:22:23.636Z,90.60
2018-04-26T10:24:51.011Z,90.20
2018-04-26T10:27:17.208Z,90.20
2018-04-26T10:29:44.182Z,85.00
2018-04-26T10:32:10.427Z,84.40
2018-04-26T10:34:36.632Z,86.70
2018-04-26T10:37:02.936Z,84.40
2018-04-26T10:39:29.902Z,87.40
2018-04-26T10:41:56.956Z,89.00
2018-04-26T10:44:23.174Z,88.30
2018-04-26T10:46:50.106Z,83.80
2018-04-26T10:49:17.091Z,84.40
2018-04-26T10:51:43.276Z,84.20
2018-04-26T10:54:10.272Z,87.50
2018-04-26T10:56:36.474Z,86.60
2018-04-26T10:59:02.792Z,90.80
2018-04-26T11:01:29.751Z,93.00
2018-04-26T11:03:55.974Z,92.90
2018-04-26T11:06:22.936Z,90.60
2018-04-26T11:08:49.168Z,90.60
2018-04-26T11:11:15.396Z,94.40
2018-04-26T11:13:41.664Z,93.40
2018-04-26T11:16:07.918Z,93.60
2018-04-26T11:18:34.188Z,94.00
2018-04-26T11:21:00.400Z,95.10
2018-04-26T11:23:26.627Z,95.10
2018-04-26T11:25:52.869Z,95.50
2018-04-26T11:28:19.221Z,93.50
2018-04-26T11:30:45.419Z,97.20
2018-04-26T11:33:11.647Z,97.00
2018-04-26T11:35:37.860Z,96.10
2018-04-26T11:38:04.988Z,94.90
2018-04-26T11:40:31.204Z,94.80
2018-04-26T11:42:57.408Z,92.90
2018-04-26T11:45:23.730Z,92.90
2018-04-26T11:47:49.948Z,90.70
2018-04-26T11:50:16.132Z,90.70
2018-04-26T11:52:42.332Z,90.10
2018-04-26T11:55:08.540Z,90.10
2018-04-26T11:57:34.787Z,90.00
2018-04-26T12:00:01.028Z,90.70
2018-04-26T12:02:27.238Z,91.10
2018-04-26T12:04:53.643Z,90.10
2018-04-26T12:07:20.589Z,85.40
2018-04-26T12:09:47.611Z,87.80
2018-04-26T12:12:13.920Z,87.80
2018-04-26T12:14:40.174Z,87.60
2018-04-26T12:17:06.422Z,86.60
2018-04-26T12:19:33.388Z,84.30
2018-04-26T12:21:59.820Z,84.30
2018-04-26T12:24:26.044Z,87.80
2018-04-26T12:26:52.436Z,85.70
2018-04-26T12:29:18.662Z,87.00
2018-04-26T12:31:44.912Z,85.70
2018-04-26T12:34:11.873Z,88.80
2018-04-26T12:36:38.827Z,89.40
2018-04-26T12:39:05.204Z,89.30
2018-04-26T12:41:31.412Z,91.00
2018-04-26T12:43:57.607Z,88.90
2018-04-26T12:46:24.690Z,89.30
2018-04-26T12:48:50.883Z,89.20
2018-04-26T12:51:17.830Z,92.30
2018-04-26T12:53:44.799Z,91.40
2018-04-26T12:56:11.027Z,91.40
2018-04-26T12:58:37.231Z,92.20
2018-04-26T13:01:03.464Z,94.80
2018-04-26T13:03:30.425Z,91.30
2018-04-26T13:05:57.098Z,91.30
2018-04-26T13:08:23.442Z,93.00
2018-04-26T13:10:49.829Z,90.90
2018-04-26T13:13:16.104Z,91.60
2018-04-26T13:15:42.778Z,89.10
2018-04-26T13:18:09.795Z,88.50
2018-04-26T13:20:36.011Z,88.10
2018-04-26T13:23:02.256Z,90.50
2018-04-26T13:25:28.476Z,86.00
2018-04-26T13:27:54.703Z,85.80
2018-04-26T13:30:20.936Z,84.30
2018-04-26T13:32:47.170Z,81.60
2018-04-26T13:35:14.204Z,83.70
2018-04-26T13:37:40.444Z,83.40
2018-04-26T13:40:07.422Z,83.60
2018-04-26T13:42:34.548Z,84.80
2018-04-26T13:45:01.280Z,84.70
2018-04-26T13:47:27.592Z,82.70
2018-04-26T13:49:53.813Z,82.00
2018-04-26T13:52:20.104Z,80.50
2018-04-26T13:54:47.106Z,77.20
2018-04-26T13:57:13.454Z,77.10
2018-04-26T13:59:39.767Z,75.80
2018-04-26T14:02:06.024Z,79.00
2018-04-26T14:04:32.249Z,78.50
2018-04-26T14:06:58.490Z,80.70
2018-04-26T14:09:25.451Z,83.20
2018-04-26T14:11:51.753Z,83.20
2018-04-26T14:14:17.960Z,84.70
2018-04-26T14:16:44.951Z,85.80
2018-04-26T14:19:11.334Z,85.70
2018-04-26T14:21:37.608Z,85.40
2018-04-26T14:24:04.600Z,82.60
2018-04-26T14:26:30.962Z,82.30
2018-04-26T14:28:57.171Z,78.30
2018-04-26T14:31:23.400Z,80.50
2018-04-26T14:33:49.641Z,82.00
2018-04-26T14:36:15.880Z,81.00
2018-04-26T14:38:42.127Z,78.00
2018-04-26T14:41:08.315Z,80.50
2018-04-26T14:43:34.528Z,80.00
2018-04-26T14:46:00.713Z,77.10
2018-04-26T14:48:28.158Z,75.40
2018-04-26T14:50:54.484Z,75.40
2018-04-26T14:53:20.686Z,75.70
2018-04-26T14:55:47.003Z,76.30
2018-04-26T14:58:13.260Z,73.70
2018-04-26T15:00:39.583Z,75.90
2018-04-26T15:03:05.917Z,74.40
2018-04-26T15:05:32.215Z,73.50
2018-04-26T15:07:58.428Z,75.10
2018-04-26T15:10:25.376Z,74.10
2018-04-26T15:12:52.376Z,76.00
2018-04-26T15:15:18.722Z,75.80
2018-04-26T15:17:44.892Z,75.80
2018-04-26T15:20:11.142Z,77.10
2018-04-26T15:22:37.348Z,77.90
2018-04-26T15:25:03.716Z,72.90
2018-04-26T15:27:29.980Z,74.40
2018-04-26T15:29:56.944Z,75.50
2018-04-26T15:32:23.906Z,77.20
2018-04-26T15:34:50.538Z,77.10
2018-04-26T15:37:16.795Z,78.00
2018-04-26T15:39:43.027Z,78.20
2018-04-26T15:42:09.276Z,77.10
2018-04-26T15:44:35.479Z,76.80
2018-04-26T15:47:01.779Z,75.00
2018-04-26T15:49:28.775Z,75.70
2018-04-26T15:51:55.200Z,75.70
2018-04-26T15:54:33.656Z,77.40
2018-04-26T15:57:12.751Z,75.90
2018-04-26T15:59:51.403Z,75.50
2018-04-26T16:05:57.830Z,72.50
2018-04-26T16:08:37.015Z,74.10
2018-04-26T16:11:21.405Z,73.00
2018-04-26T16:14:04.810Z,72.80
2018-04-26T16:16:49.462Z,70.50
2018-04-26T16:19:34.158Z,70.50
2018-04-26T16:22:18.903Z,70.70
2018-04-26T16:24:57.469Z,73.60
2018-04-26T16:27:42.206Z,73.40
2018-04-26T16:30:20.677Z,72.70
2018-04-26T16:33:04.961Z,72.40
2018-04-26T16:35:55.082Z,72.20
2018-04-26T16:38:33.615Z,75.00
2018-04-26T16:40:59.863Z,74.40
2018-04-26T16:43:25.987Z,75.50
2018-04-26T16:45:52.133Z,75.70
2018-04-26T16:48:18.250Z,74.50
2018-04-26T16:50:45.132Z,73.90
2018-04-26T16:53:11.995Z,74.30
2018-04-26T16:55:38.125Z,74.20
2018-04-26T16:58:04.298Z,75.50
2018-04-26T17:00:30.481Z,76.40
2018-04-26T17:02:56.990Z,76.40
2018-04-26T17:05:23.141Z,77.80
2018-04-26T17:07:50.070Z,73.50
2018-04-26T17:10:16.330Z,73.50
2018-04-26T17:12:43.232Z,72.30
2018-04-26T17:15:09.389Z,72.20
2018-04-26T17:17:35.547Z,73.10
2018-04-26T17:20:02.482Z,73.40
2018-04-26T17:22:29.374Z,70.80
2018-04-26T17:24:55.589Z,70.50
2018-04-26T17:27:22.451Z,72.20
2018-04-26T17:29:48.592Z,72.30
2018-04-26T17:32:14.746Z,69.50
2018-04-26T17:34:40.921Z,71.30
2018-04-26T17:37:07.707Z,71.10
2018-04-26T17:39:33.842Z,71.00
2018-04-26T17:42:00.015Z,72.10
2018-04-26T17:44:27.472Z,69.80
2018-04-26T17:46:54.340Z,71.90
2018-04-26T17:49:20.552Z,71.90
2018-04-26T17:51:46.839Z,71.70
2018-04-26T17:54:13.053Z,72.20
2018-04-26T17:56:39.954Z,72.00
2018-04-26T17:59:06.125Z,71.70
2018-04-26T18:01:32.318Z,71.40
2018-04-26T18:03:58.610Z,71.20
2018-04-26T18:06:24.781Z,71.40
2018-04-26T18:08:50.912Z,71.40
2018-04-26T18:11:17.119Z,71.00
2018-04-26T18:13:43.337Z,72.10
2018-04-26T18:16:09.480Z,72.90
2018-04-26T18:18:35.610Z,72.00
2018-04-26T18:21:01.765Z,72.10
2018-04-26T18:23:28.051Z,73.70
2018-04-26T18:25:54.185Z,72.70
2018-04-26T18:28:20.309Z,73.10
2018-04-26T18:30:47.233Z,75.60
2018-04-26T18:33:13.364Z,75.60
2018-04-26T18:35:39.671Z,73.70
2018-04-26T18:38:05.909Z,77.00
2018-04-26T18:40:32.107Z,73.10
2018-04-26T18:42:58.238Z,73.50
2018-04-26T18:45:24.633Z,74.60
2018-04-26T18:47:51.554Z,76.00
2018-04-26T18:50:17.829Z,76.00
2018-04-26T18:52:44.129Z,74.90
2018-04-26T18:55:10.295Z,76.30
2018-04-26T18:57:36.534Z,76.70
2018-04-26T19:00:02.803Z,75.50
2018-04-26T19:02:28.951Z,76.80
2018-04-26T19:04:55.176Z,78.20
2018-04-26T19:07:22.050Z,79.60
2018-04-26T19:09:48.174Z,79.50
2018-04-26T19:12:14.349Z,80.30
2018-04-26T19:14:40.505Z,80.90
2018-04-26T19:17:07.441Z,82.70
2018-04-26T19:19:33.636Z,82.60
2018-04-26T19:21:59.828Z,83.30
2018-04-26T19:24:26.706Z,82.50
2018-04-26T19:26:52.962Z,82.40
2018-04-26T19:29:20.166Z,83.20
2018-04-26T19:31:46.298Z,83.70
2018-04-26T19:34:13.174Z,83.70
2018-04-26T19:36:39.391Z,83.70
2018-04-26T19:39:05.652Z,85.80
2018-04-26T19:41:31.771Z,84.50
2018-04-26T19:43:58.009Z,84.70
2018-04-26T19:46:24.214Z,84.70
2018-04-26T19:48:50.422Z,84.70
2018-04-26T19:51:16.754Z,85.30
2018-04-26T19:53:42.909Z,87.00
2018-04-26T19:56:09.101Z,86.50
2018-04-26T19:58:36.098Z,88.10
2018-04-26T20:01:02.365Z,88.00
2018-04-26T20:03:28.609Z,88.30
2018-04-26T20:05:54.801Z,87.50
2018-04-26T20:08:21.111Z,87.10
2018-04-26T20:10:48.022Z,86.50
2018-04-26T20:13:14.432Z,86.50
2018-04-26T20:15:41.417Z,85.90
2018-04-26T20:18:07.550Z,86.50
2018-04-26T20:20:34.425Z,85.80
2018-04-26T20:23:01.514Z,85.70
2018-04-26T20:25:27.670Z,85.40
2018-04-26T20:27:53.938Z,85.60
2018-04-26T20:30:20.804Z,87.30
2018-04-26T20:32:46.937Z,87.30
2018-04-26T20:35:13.165Z,86.90
2018-04-26T20:37:39.421Z,86.90
2018-04-26T20:40:05.618Z,85.90
2018-04-26T20:42:31.944Z,86.00
2018-04-26T20:44:58.171Z,86.20
2018-04-26T20:47:25.451Z,86.90
2018-04-26T20:49:51.745Z,88.80
2018-04-26T20:52:17.887Z,88.00
2018-04-26T20:54:44.186Z,89.00
2018-04-26T20:57:11.057Z,90.80
2018-04-26T20:59:37.465Z,90.80
2018-04-26T21:02:04.354Z,89.10
2018-04-26T21:04:31.358Z,89.20
2018-04-26T21:06:57.609Z,89.00
2018-04-26T21:09:24.523Z,90.30
2018-04-26T21:11:50.661Z,90.00
2018-04-26T21:14:16.941Z,91.10
2018-04-26T21:16:43.073Z,90.80
2018-04-26T21:19:10.048Z,91.40
2018-04-26T21:21:36.978Z,91.30
2018-04-26T21:24:04.290Z,89.90
2018-04-26T21:26:30.481Z,89.70
2018-04-26T21:28:56.627Z,89.30
2018-04-26T21:31:22.922Z,90.20
2018-04-26T21:33:49.089Z,90.80
2018-04-26T21:36:15.401Z,91.00
2018-04-26T21:38:41.574Z,91.20
2018-04-26T21:41:07.694Z,91.50
2018-04-26T21:43:33.832Z,91.80
2018-04-26T21:45:59.990Z,91.50
2018-04-26T21:48:26.125Z,91.80
2018-04-26T21:50:58.441Z,92.10
2018-04-26T21:53:30.805Z,92.10
2018-04-26T21:56:03.472Z,92.20
2018-04-26T21:58:35.751Z,92.60
2018-04-26T22:01:08.053Z,92.30
2018-04-26T22:03:47.142Z,91.30
2018-04-26T22:06:14.069Z,90.80
2018-04-26T22:08:40.186Z,90.80
2018-04-26T22:11:06.341Z,91.20
2018-04-26T22:13:32.474Z,91.20
2018-04-26T22:15:58.595Z,91.00
2018-04-26T22:18:24.827Z,91.30
2018-04-26T22:20:50.997Z,90.50
2018-04-26T22:23:17.170Z,90.20
2018-04-26T22:25:43.381Z,90.20
2018-04-26T22:28:10.320Z,90.60
2018-04-26T22:30:37.240Z,91.10
2018-04-26T22:33:03.380Z,91.00
2018-04-26T22:35:29.501Z,91.20
2018-04-26T22:37:55.682Z,90.70
2018-04-26T22:40:21.846Z,90.90
2018-04-26T22:42:47.987Z,91.60
2018-04-26T22:45:14.877Z,90.30
2018-04-26T22:47:41.042Z,90.20
2018-04-26T22:50:07.279Z,91.20
2018-04-26T22:52:33.410Z,91.70
2018-04-26T22:54:59.673Z,90.90
2018-04-26T22:57:25.821Z,91.80
2018-04-26T22:59:52.767Z,92.20
2018-04-26T23:02:18.916Z,92.20
2018-04-26T23:04:45.104Z,92.20
2018-04-26T23:07:11.809Z,92.50
2018-04-26T23:09:37.936Z,93.00
2018-04-26T23:12:04.173Z,92.70
2018-04-26T23:14:30.314Z,92.90
2018-04-26T23:16:57.130Z,92.80
2018-04-26T23:19:23.250Z,92.70
2018-04-26T23:21:50.148Z,93.30
2018-04-26T23:24:16.289Z,93.30
2018-04-26T23:26:42.405Z,93.50
2018-04-26T23:29:08.557Z,93.50
2018-04-26T23:31:34.743Z,92.70
2018-04-26T23:34:00.908Z,93.10
2018-04-26T23:36:27.862Z,93.40
2018-04-26T23:38:54.001Z,93.30
2018-04-26T23:41:20.152Z,93.80
2018-04-26T23:43:46.305Z,94.40
2018-04-26T23:46:13.213Z,93.80
2018-04-26T23:48:40.378Z,93.50
2018-04-26T23:51:06.618Z,93.40
2018-04-26T23:53:32.921Z,93.50
2018-04-26T23:55:59.094Z,92.00
2018-04-26T23:58:25.255Z,93.70
